Beverly Hills, California
Current Conditions -  °F | °C
As of 1:51 PM on Sunday 21 Dec 2014 (Local Time) from KSMO Reporting Station
Haze Haze  
Wind Chill: 65°   Ceiling: Unl
Heat Index: 65°   Visibility: 6mi
Dew Point: 53°   Wind: 7mph
Humidity: 65%   Direction: 200°SSW
Pressure: 30.06"   Gusts: NA
Location:  34.07°N, 118.39°W
Report Text: KSMO 212151Z 20006KT 6SM HZ CLR 18/12 A3006 RMK AO2 SLP177 T01830117 $
Loading
Personal Weather Stations






























Interactive Weather Map New forecast layout! Learn more

10-Day Weather Forecast

Advertisements
Track Severe Weather on mobile